createdAt,value
2022-11-09T00:01:06.412Z,16.77
2022-11-09T00:03:33.392Z,14.88
2022-11-09T00:06:01.180Z,16.50
2022-11-09T00:08:28.262Z,15.70
2022-11-09T00:10:55.435Z,14.95
2022-11-09T00:13:22.776Z,13.80
2022-11-09T00:15:50.101Z,13.90
2022-11-09T00:18:17.080Z,14.75
2022-11-09T00:20:47.504Z,14.75
2022-11-09T00:23:16.351Z,12.80
2022-11-09T00:25:43.622Z,13.75
2022-11-09T00:28:10.669Z,13.98
2022-11-09T00:30:37.676Z,13.32
2022-11-09T00:33:04.802Z,13.73
2022-11-09T00:35:31.801Z,13.52
2022-11-09T00:37:59.121Z,12.23
2022-11-09T00:40:26.116Z,13.88
2022-11-09T00:42:53.129Z,12.40
2022-11-09T00:45:20.399Z,12.77
2022-11-09T00:47:47.375Z,13.63
2022-11-09T00:50:14.634Z,12.98
2022-11-09T00:52:41.607Z,14.18
2022-11-09T00:55:08.836Z,14.27
2022-11-09T00:57:36.429Z,12.15
2022-11-09T01:00:04.845Z,12.80
2022-11-09T01:02:31.827Z,12.50
2022-11-09T01:05:00.013Z,13.68
2022-11-09T01:07:27.005Z,14.88
2022-11-09T01:09:53.896Z,12.13
2022-11-09T01:12:23.972Z,13.70
2022-11-09T01:14:51.614Z,13.32
2022-11-09T01:17:18.854Z,14.52
2022-11-09T01:19:47.329Z,13.20
2022-11-09T01:22:15.219Z,13.55
2022-11-09T01:24:42.426Z,14.70
2022-11-09T01:27:09.482Z,14.80
2022-11-09T01:29:36.747Z,14.48
2022-11-09T01:32:04.262Z,13.98
2022-11-09T01:34:32.190Z,14.88
2022-11-09T01:37:02.499Z,14.20
2022-11-09T01:39:30.541Z,13.35
2022-11-09T01:41:57.460Z,14.63
2022-11-09T01:44:27.731Z,14.82
2022-11-09T01:47:02.139Z,13.07
2022-11-09T01:49:56.392Z,13.07
2022-11-09T01:52:25.543Z,13.35
2022-11-09T01:54:58.956Z,13.77
2022-11-09T01:57:29.684Z,13.05
2022-11-09T02:00:09.334Z,13.05
2022-11-09T02:03:11.928Z,14.02
2022-11-09T02:05:41.734Z,14.52
2022-11-09T02:08:12.685Z,14.57
2022-11-09T02:10:47.264Z,14.20
2022-11-09T02:13:18.653Z,15.18
2022-11-09T02:15:46.263Z,14.98
2022-11-09T02:18:14.436Z,15.95
2022-11-09T02:20:51.051Z,16.02
2022-11-09T02:23:19.378Z,16.65
2022-11-09T02:25:58.858Z,15.80
2022-11-09T02:28:27.461Z,17.38
2022-11-09T02:30:56.024Z,17.27
2022-11-09T02:33:24.319Z,18.40
2022-11-09T02:35:52.013Z,18.75
2022-11-09T02:38:19.241Z,18.48
2022-11-09T02:40:51.920Z,18.55
2022-11-09T02:43:20.260Z,18.17
2022-11-09T02:45:47.585Z,18.48
2022-11-09T02:48:15.209Z,19.33
2022-11-09T02:50:42.273Z,20.08
2022-11-09T02:53:09.201Z,19.95
2022-11-09T02:55:41.208Z,19.58
2022-11-09T02:58:09.024Z,18.50
2022-11-09T03:00:37.022Z,20.20
2022-11-09T03:03:04.609Z,19.98
2022-11-09T03:05:31.797Z,19.77
2022-11-09T03:08:02.403Z,17.98
2022-11-09T03:10:32.053Z,18.90
2022-11-09T03:12:59.085Z,18.77
2022-11-09T03:15:26.085Z,18.63
2022-11-09T03:17:53.025Z,20.50
2022-11-09T03:20:21.460Z,18.98
2022-11-09T03:22:48.775Z,18.40
2022-11-09T03:25:16.293Z,20.15
2022-11-09T03:27:43.659Z,19.92
2022-11-09T03:30:12.051Z,18.27
2022-11-09T03:32:40.198Z,17.42
2022-11-09T03:35:08.092Z,18.02
2022-11-09T03:37:35.604Z,17.85
2022-11-09T03:40:03.969Z,19.35
2022-11-09T03:42:30.933Z,18.10
2022-11-09T03:44:58.016Z,17.27
2022-11-09T03:47:25.012Z,18.10
2022-11-09T03:49:51.953Z,18.92
2022-11-09T03:52:18.913Z,18.00
2022-11-09T03:54:45.857Z,17.63
2022-11-09T03:57:12.743Z,18.13
2022-11-09T03:59:39.702Z,17.08
2022-11-09T04:02:06.766Z,17.63
2022-11-09T04:04:33.834Z,16.58
2022-11-09T04:07:00.846Z,16.20
2022-11-09T04:09:27.834Z,17.27
2022-11-09T04:11:54.800Z,16.10
2022-11-09T04:14:21.701Z,16.60
2022-11-09T04:16:48.745Z,16.48
2022-11-09T04:19:15.701Z,15.02
2022-11-09T04:21:42.749Z,15.57
2022-11-09T04:24:09.683Z,14.88
2022-11-09T04:26:36.782Z,16.00
2022-11-09T04:29:04.281Z,16.75
2022-11-09T04:31:31.384Z,15.57
2022-11-09T04:33:58.396Z,15.65
2022-11-09T04:36:25.648Z,15.57
2022-11-09T04:38:52.580Z,16.75
2022-11-09T04:41:19.581Z,14.98
2022-11-09T04:43:46.565Z,15.85
2022-11-09T04:46:13.571Z,16.25
2022-11-09T04:48:40.550Z,16.15
2022-11-09T04:51:10.455Z,15.40
2022-11-09T04:53:38.030Z,15.32
2022-11-09T04:56:06.412Z,14.50
2022-11-09T04:58:33.421Z,15.57
2022-11-09T05:01:04.502Z,15.80
2022-11-09T05:03:31.561Z,15.40
2022-11-09T05:05:58.550Z,15.35
2022-11-09T05:08:25.605Z,16.75
2022-11-09T05:10:57.670Z,16.95
2022-11-09T05:13:24.703Z,16.80
2022-11-09T05:15:51.621Z,17.08
2022-11-09T05:18:18.599Z,16.33
2022-11-09T05:20:45.496Z,16.70
2022-11-09T05:23:30.872Z,16.35
2022-11-09T05:25:57.824Z,17.80
2022-11-09T05:28:24.725Z,17.88
2022-11-09T05:30:51.741Z,17.52
2022-11-09T05:33:19.172Z,18.00
2022-11-09T05:35:46.301Z,16.73
2022-11-09T05:38:13.360Z,18.75
2022-11-09T05:40:40.404Z,16.98
2022-11-09T05:43:07.307Z,19.05
2022-11-09T05:45:43.387Z,19.27
2022-11-09T05:48:13.023Z,19.45
2022-11-09T05:50:41.352Z,18.88
2022-11-09T05:53:20.456Z,19.05
2022-11-09T05:55:47.621Z,18.25
2022-11-09T05:58:14.598Z,19.58
2022-11-09T06:00:41.599Z,19.55
2022-11-09T06:03:10.539Z,18.95
2022-11-09T06:05:39.645Z,18.80
2022-11-09T06:08:09.463Z,18.95
2022-11-09T06:10:36.424Z,19.02
2022-11-09T06:13:03.668Z,18.65
2022-11-09T06:15:30.645Z,18.52
2022-11-09T06:17:58.759Z,18.55
2022-11-09T06:20:27.257Z,18.58
2022-11-09T06:23:03.132Z,19.38
2022-11-09T06:25:33.140Z,17.98
2022-11-09T06:28:00.784Z,17.60
2022-11-09T06:30:27.744Z,18.38
2022-11-09T06:32:59.367Z,18.10
2022-11-09T06:35:26.544Z,18.38
2022-11-09T06:38:00.828Z,17.13
2022-11-09T06:40:28.686Z,15.73
2022-11-09T06:43:00.223Z,17.80
2022-11-09T06:45:29.062Z,17.50
2022-11-09T06:48:00.505Z,17.88
2022-11-09T06:50:32.652Z,16.55
2022-11-09T06:53:01.946Z,15.68
2022-11-09T06:55:30.342Z,15.07
2022-11-09T06:57:58.388Z,15.70
2022-11-09T07:00:27.598Z,15.18
2022-11-09T07:02:54.735Z,14.68
2022-11-09T07:05:22.186Z,14.43
2022-11-09T07:07:49.354Z,13.32
2022-11-09T07:10:16.876Z,13.43
2022-11-09T07:12:43.916Z,13.95
2022-11-09T07:15:11.936Z,12.65
2022-11-09T07:17:40.165Z,12.52
2022-11-09T07:20:09.104Z,14.02
2022-11-09T07:22:39.521Z,14.30
2022-11-09T07:25:11.811Z,14.85
2022-11-09T07:27:38.991Z,16.98
2022-11-09T07:30:06.460Z,19.27
2022-11-09T07:33:02.579Z,21.27
2022-11-09T07:35:22.406Z,17.60
2022-11-09T07:37:49.424Z,16.52
2022-11-09T07:40:16.446Z,16.00
2022-11-09T07:42:43.377Z,17.08
2022-11-09T07:45:10.639Z,15.93
2022-11-09T07:47:37.736Z,17.02
2022-11-09T07:50:05.679Z,16.13
2022-11-09T07:52:32.736Z,17.67
2022-11-09T07:54:59.683Z,16.50
2022-11-09T07:57:26.568Z,16.23
2022-11-09T07:59:53.638Z,16.33
2022-11-09T08:02:23.293Z,17.75
2022-11-09T08:04:50.268Z,14.98
2022-11-09T08:07:17.275Z,15.40
2022-11-09T08:09:44.281Z,15.68
2022-11-09T08:12:11.350Z,15.27
2022-11-09T08:14:38.228Z,15.40
2022-11-09T08:17:05.265Z,16.38
2022-11-09T08:19:32.217Z,14.18
2022-11-09T08:22:00.233Z,14.55
2022-11-09T08:24:27.305Z,15.07
2022-11-09T08:26:55.820Z,15.45
2022-11-09T08:29:22.918Z,14.90
2022-11-09T08:31:51.476Z,14.63
2022-11-09T08:34:18.782Z,15.05
2022-11-09T08:36:45.759Z,15.18
2022-11-09T08:39:12.877Z,14.05
2022-11-09T08:41:39.896Z,15.18
2022-11-09T08:44:06.821Z,13.60
2022-11-09T08:46:38.390Z,14.52
2022-11-09T08:49:07.859Z,14.30
2022-11-09T08:51:34.924Z,15.13
2022-11-09T08:54:02.738Z,14.32
2022-11-09T08:56:29.845Z,14.55
2022-11-09T08:58:56.864Z,15.77
2022-11-09T09:01:25.340Z,14.80
2022-11-09T09:03:52.502Z,15.57
2022-11-09T09:06:19.554Z,14.82
2022-11-09T09:08:46.504Z,15.93
2022-11-09T09:11:13.511Z,15.23
2022-11-09T09:13:43.421Z,15.18
2022-11-09T09:16:15.610Z,15.05
2022-11-09T09:18:43.180Z,15.82
2022-11-09T09:21:11.261Z,16.20
2022-11-09T09:23:38.381Z,16.13
2022-11-09T09:26:05.896Z,15.85
2022-11-09T09:28:33.129Z,15.80
2022-11-09T09:31:01.665Z,15.57
2022-11-09T09:33:29.299Z,15.15
2022-11-09T09:35:57.909Z,15.88
2022-11-09T09:38:29.094Z,15.65
2022-11-09T09:41:05.859Z,15.52
2022-11-09T09:43:44.182Z,15.05
2022-11-09T09:46:31.285Z,15.90
2022-11-09T09:49:07.042Z,16.33
2022-11-09T09:54:24.816Z,16.27
2022-11-09T09:56:55.621Z,17.27
2022-11-09T09:59:27.311Z,17.48
2022-11-09T10:01:57.366Z,16.13
2022-11-09T10:04:36.632Z,16.38
2022-11-09T10:07:33.326Z,16.75
2022-11-09T10:12:49.398Z,17.90
2022-11-09T10:15:31.410Z,18.10
2022-11-09T10:17:58.423Z,17.55
2022-11-09T10:20:38.452Z,18.08
2022-11-09T10:23:14.103Z,18.23
2022-11-09T10:29:01.291Z,19.90
2022-11-09T10:31:23.514Z,21.08
2022-11-09T10:33:55.463Z,20.95
2022-11-09T10:36:37.629Z,20.27
2022-11-09T10:39:04.582Z,20.80
2022-11-09T10:41:50.035Z,22.23
2022-11-09T10:44:35.464Z,19.13
2022-11-09T10:47:22.542Z,18.80
2022-11-09T10:50:34.314Z,16.83
2022-11-09T10:53:28.537Z,17.63
2022-11-09T10:56:21.974Z,17.65
2022-11-09T10:59:36.894Z,17.25
2022-11-09T11:02:29.015Z,19.38
2022-11-09T11:05:17.253Z,18.38
2022-11-09T11:08:25.839Z,18.20
2022-11-09T11:11:33.249Z,21.35
2022-11-09T11:14:41.792Z,17.20
2022-11-09T11:17:35.939Z,18.08
2022-11-09T11:20:36.105Z,18.95
2022-11-09T11:23:24.628Z,18.92
2022-11-09T11:26:36.207Z,19.60
2022-11-09T11:29:41.086Z,18.75
2022-11-09T11:32:27.192Z,21.52
2022-11-09T11:35:28.806Z,20.88
2022-11-09T11:38:36.604Z,22.27
2022-11-09T11:41:45.993Z,21.73
2022-11-09T11:44:47.897Z,21.55
2022-11-09T11:47:38.986Z,21.60
2022-11-09T11:50:46.752Z,21.60
2022-11-09T11:54:06.250Z,23.15
2022-11-09T11:57:16.457Z,22.63
2022-11-09T12:00:12.152Z,22.77
2022-11-09T12:03:27.945Z,22.02
2022-11-09T12:06:39.656Z,39.70
2022-11-09T12:09:50.860Z,27.00
2022-11-09T12:12:57.325Z,23.73
2022-11-09T12:16:07.714Z,26.30
2022-11-09T12:18:53.007Z,23.65
2022-11-09T12:22:06.416Z,25.10
2022-11-09T12:24:51.804Z,26.05
2022-11-09T12:28:14.630Z,25.43
2022-11-09T12:31:13.541Z,26.75
2022-11-09T12:34:18.598Z,26.42
2022-11-09T12:37:12.863Z,26.35
2022-11-09T12:40:21.983Z,25.25
2022-11-09T12:43:26.847Z,27.30
2022-11-09T12:46:17.585Z,26.05
2022-11-09T12:49:05.668Z,26.92
2022-11-09T12:51:54.342Z,26.65
2022-11-09T12:54:47.733Z,28.27
2022-11-09T12:57:33.460Z,27.63
2022-11-09T13:00:47.027Z,25.85
2022-11-09T13:03:35.471Z,27.05
2022-11-09T13:06:27.750Z,26.33
2022-11-09T13:09:16.196Z,25.55
2022-11-09T13:12:37.278Z,24.88
2022-11-09T13:15:27.579Z,26.38
2022-11-09T13:18:24.997Z,26.05
2022-11-09T13:21:22.989Z,25.92
2022-11-09T13:24:31.499Z,28.67
2022-11-09T13:27:47.202Z,25.02
2022-11-09T13:30:42.773Z,25.38
2022-11-09T13:33:29.737Z,26.50
2022-11-09T13:36:17.384Z,26.33
2022-11-09T13:39:37.773Z,26.15
2022-11-09T13:42:28.986Z,27.85
2022-11-09T13:45:57.896Z,25.58
2022-11-09T13:48:56.769Z,25.42
2022-11-09T13:51:47.434Z,25.88
2022-11-09T13:54:44.354Z,25.02
2022-11-09T13:57:31.893Z,25.90
2022-11-09T14:00:26.932Z,27.00
2022-11-09T14:03:21.260Z,26.88
2022-11-09T14:06:11.420Z,27.67
2022-11-09T14:08:58.326Z,28.02
2022-11-09T14:12:08.815Z,28.40
2022-11-09T14:15:29.358Z,27.42
2022-11-09T14:18:14.904Z,27.63
2022-11-09T14:21:14.890Z,27.58
2022-11-09T14:24:29.671Z,28.50
2022-11-09T14:27:21.497Z,28.70
2022-11-09T14:30:22.672Z,29.77
2022-11-09T14:33:22.467Z,29.08
2022-11-09T14:36:12.953Z,28.17
2022-11-09T14:39:02.452Z,30.48
2022-11-09T14:41:49.496Z,30.15
2022-11-09T14:44:43.825Z,30.48
2022-11-09T14:47:34.028Z,30.15
2022-11-09T14:50:31.847Z,28.83
2022-11-09T14:53:25.653Z,26.02
2022-11-09T14:56:14.970Z,28.50
2022-11-09T14:59:04.474Z,28.45
2022-11-09T15:02:03.299Z,27.45
2022-11-09T15:04:58.582Z,24.70
2022-11-09T15:07:48.249Z,26.05
2022-11-09T15:10:34.997Z,23.60
2022-11-09T15:13:35.854Z,25.02
2022-11-09T15:16:27.876Z,23.50
2022-11-09T15:19:31.060Z,25.08
2022-11-09T15:22:55.209Z,21.33
2022-11-09T15:25:44.635Z,22.20
2022-11-09T15:28:31.039Z,23.58
2022-11-09T15:31:18.792Z,22.85
2022-11-09T15:34:21.981Z,24.25
2022-11-09T15:37:29.764Z,22.67
2022-11-09T15:40:18.774Z,23.42
2022-11-09T15:43:04.238Z,25.33
2022-11-09T15:45:49.933Z,26.23
2022-11-09T15:48:35.997Z,28.92
2022-11-09T15:51:21.557Z,26.60
2022-11-09T15:54:07.184Z,27.85
2022-11-09T15:56:52.589Z,26.40
2022-11-09T15:59:38.254Z,23.52
2022-11-09T16:02:23.873Z,20.77
2022-11-09T16:05:09.491Z,23.17
2022-11-09T16:07:55.602Z,21.60
2022-11-09T16:10:41.914Z,21.75
2022-11-09T16:13:27.533Z,22.38
2022-11-09T16:16:14.809Z,22.53
2022-11-09T16:19:00.508Z,21.77
2022-11-09T16:24:31.742Z,22.23
2022-11-09T16:27:47.972Z,21.02
2022-11-09T16:30:24.190Z,22.75
2022-11-09T16:33:10.040Z,22.17
2022-11-09T16:35:59.767Z,25.63
2022-11-09T16:38:48.575Z,25.02
2022-11-09T16:41:34.192Z,25.20
2022-11-09T16:44:23.642Z,25.63
2022-11-09T16:47:11.944Z,27.23
2022-11-09T16:49:57.370Z,24.50
2022-11-09T16:52:43.228Z,25.88
2022-11-09T16:55:28.797Z,25.58
2022-11-09T16:58:14.334Z,26.88
2022-11-09T17:01:19.081Z,27.23
2022-11-09T17:04:05.295Z,27.45
2022-11-09T17:06:51.591Z,26.17
2022-11-09T17:09:37.556Z,27.60
2022-11-09T17:12:23.521Z,26.08
2022-11-09T17:15:09.654Z,26.63
2022-11-09T17:17:55.330Z,28.45
2022-11-09T17:20:43.213Z,28.60
2022-11-09T17:23:29.040Z,26.45
2022-11-09T17:26:14.767Z,25.90
2022-11-09T17:29:00.645Z,27.13
2022-11-09T17:31:46.178Z,26.23
2022-11-09T17:34:31.596Z,24.67
2022-11-09T17:37:17.330Z,25.23
2022-11-09T17:40:02.960Z,25.17
2022-11-09T17:42:48.859Z,25.75
2022-11-09T17:45:35.453Z,26.90
2022-11-09T17:48:21.452Z,25.17
2022-11-09T17:51:08.606Z,24.40
2022-11-09T17:53:54.888Z,22.65
2022-11-09T17:59:25.944Z,24.85
2022-11-09T18:02:11.149Z,24.35
2022-11-09T18:04:56.440Z,23.80
2022-11-09T18:07:41.843Z,20.30
2022-11-09T18:10:27.582Z,22.73
2022-11-09T18:13:13.206Z,20.42
2022-11-09T18:15:58.549Z,18.80
2022-11-09T18:18:44.738Z,20.67
2022-11-09T18:24:15.626Z,19.40
2022-11-09T18:27:01.246Z,19.25
2022-11-09T18:29:46.847Z,20.70
2022-11-09T18:32:32.536Z,21.02
2022-11-09T18:35:18.201Z,20.35
2022-11-09T18:38:03.961Z,18.58
2022-11-09T18:41:07.342Z,20.23
2022-11-09T18:43:54.149Z,20.95
2022-11-09T18:46:40.051Z,20.63
2022-11-09T18:49:25.455Z,20.88
2022-11-09T18:52:11.297Z,24.35
2022-11-09T18:54:56.930Z,22.30
2022-11-09T18:57:42.823Z,23.65
2022-11-09T19:00:28.145Z,21.75
2022-11-09T19:03:16.698Z,29.02
2022-11-09T19:06:11.499Z,23.40
2022-11-09T19:09:15.930Z,22.90
2022-11-09T19:12:04.527Z,23.05
2022-11-09T19:14:50.154Z,24.08
2022-11-09T19:17:37.326Z,28.42
2022-11-09T19:20:23.894Z,29.15
2022-11-09T19:25:55.080Z,28.90
2022-11-09T19:28:40.288Z,30.00
2022-11-09T19:31:26.154Z,29.20
2022-11-09T19:34:14.139Z,29.17
2022-11-09T19:36:59.842Z,28.52
2022-11-09T19:39:47.644Z,32.88
2022-11-09T19:42:33.446Z,29.08
2022-11-09T19:45:19.283Z,28.75
2022-11-09T19:48:04.953Z,31.67
2022-11-09T19:50:51.970Z,30.17
2022-11-09T19:53:42.219Z,30.30
2022-11-09T19:56:29.591Z,30.77
2022-11-09T19:59:17.054Z,29.63
2022-11-09T20:02:02.935Z,33.50
2022-11-09T20:04:50.707Z,31.73
2022-11-09T20:07:36.069Z,30.58
2022-11-09T20:10:23.236Z,30.98
2022-11-09T20:13:08.944Z,31.85
2022-11-09T20:15:54.664Z,30.20
2022-11-09T20:18:40.112Z,31.35
2022-11-09T20:21:25.692Z,30.95
2022-11-09T20:24:12.558Z,31.33
2022-11-09T20:26:58.377Z,30.17
2022-11-09T20:29:43.986Z,28.92
2022-11-09T20:32:30.694Z,32.30
2022-11-09T20:35:16.552Z,30.88
2022-11-09T20:38:02.841Z,31.70
2022-11-09T20:41:08.171Z,29.55
2022-11-09T20:43:54.035Z,42.67
2022-11-09T20:46:40.688Z,29.48
2022-11-09T20:52:13.343Z,30.10
2022-11-09T20:55:00.024Z,30.75
2022-11-09T20:57:47.129Z,30.30
2022-11-09T21:00:34.048Z,31.52
2022-11-09T21:03:22.262Z,31.05
2022-11-09T21:06:09.530Z,30.42
2022-11-09T21:09:00.909Z,29.17
2022-11-09T21:12:04.973Z,30.17
2022-11-09T21:14:51.129Z,31.90
2022-11-09T21:17:37.208Z,32.05
2022-11-09T21:20:22.815Z,31.35
2022-11-09T21:23:13.237Z,30.17
2022-11-09T21:26:19.090Z,31.20
2022-11-09T21:29:23.533Z,33.15
2022-11-09T21:32:11.174Z,31.95
2022-11-09T21:34:56.445Z,32.75
2022-11-09T21:37:41.895Z,33.70
2022-11-09T21:40:27.261Z,33.83
2022-11-09T21:43:12.595Z,34.20
2022-11-09T21:45:58.164Z,36.00
2022-11-09T21:48:43.793Z,32.53
2022-11-09T21:51:29.276Z,31.77
2022-11-09T21:54:14.602Z,30.70
2022-11-09T21:57:00.134Z,29.98
2022-11-09T21:59:45.812Z,28.33
2022-11-09T22:02:31.036Z,30.80
2022-11-09T22:05:21.717Z,28.17
2022-11-09T22:08:08.549Z,30.65
2022-11-09T22:11:02.566Z,31.33
2022-11-09T22:14:07.065Z,30.17
2022-11-09T22:16:52.639Z,33.08
2022-11-09T22:19:57.456Z,29.33
2022-11-09T22:22:43.068Z,29.60
2022-11-09T22:25:28.302Z,29.00
2022-11-09T22:28:13.683Z,29.70
2022-11-09T22:31:06.349Z,29.63
2022-11-09T22:33:52.426Z,29.30
2022-11-09T22:36:37.691Z,28.58
2022-11-09T22:39:23.243Z,28.98
2022-11-09T22:42:09.007Z,29.42
2022-11-09T22:44:54.690Z,29.05
2022-11-09T22:47:40.045Z,35.47
2022-11-09T22:50:25.322Z,34.75
2022-11-09T22:53:10.915Z,28.38
2022-11-09T22:55:58.624Z,28.50
2022-11-09T22:58:47.525Z,28.92
2022-11-09T23:01:33.166Z,26.77
2022-11-09T23:04:19.056Z,27.40
2022-11-09T23:07:04.576Z,27.17
2022-11-09T23:09:50.541Z,27.83
2022-11-09T23:12:36.615Z,25.95
2022-11-09T23:15:22.271Z,26.63
2022-11-09T23:18:27.947Z,24.85
2022-11-09T23:21:14.301Z,25.40
2022-11-09T23:24:02.635Z,25.48
2022-11-09T23:26:48.282Z,25.42
2022-11-09T23:29:33.808Z,27.23
2022-11-09T23:32:19.101Z,26.10
2022-11-09T23:35:05.220Z,26.05
2022-11-09T23:40:42.385Z,26.17
2022-11-09T23:43:27.591Z,27.63
2022-11-09T23:46:14.448Z,25.80
2022-11-09T23:48:59.829Z,26.40
2022-11-09T23:51:45.699Z,26.08
2022-11-09T23:54:31.051Z,26.77
2022-11-09T23:57:16.420Z,27.73
